Time;durP1;ratioP1;P1;durP2;ratioP2;P2;SDS_P1;SDS_P2;PMS_P1;PMS_P2;Temp;Humidity;BMP_temperature;BMP_pressure;BME280_temperature;BME280_humidity;BME280_pressure;Samples;Min_cycle;Max_cycle;Signal;HPM_P1;HPM_P2
2021/12/15 00:00:52;;;;;;;41.30;34.80;;;;;;;-141.48;100.00;69781.59;5279422;28;20028;-84
2021/12/15 00:03:23;;;;;;;38.95;34.97;;;;;;;-141.48;100.00;69781.59;5260664;28;20024;-83
2021/12/15 00:05:54;;;;;;;40.17;36.20;;;;;;;-141.48;100.00;69781.59;5260334;28;20031;-84
2021/12/15 00:08:24;;;;;;;38.80;34.95;;;;;;;-141.48;100.00;69781.59;5278787;28;20047;-83
2021/12/15 00:10:55;;;;;;;39.10;34.83;;;;;;;-141.48;100.00;69781.59;5261203;28;20056;-83
2021/12/15 00:13:25;;;;;;;37.67;34.00;;;;;;;-141.48;100.00;69781.59;5279208;28;20058;-83
2021/12/15 00:15:56;;;;;;;45.17;32.50;;;;;;;-141.48;100.00;69781.59;5278128;28;20024;-84
2021/12/15 00:18:26;;;;;;;38.70;34.28;;;;;;;-141.48;100.00;69781.59;5278281;28;20030;-84
2021/12/15 00:20:57;;;;;;;42.78;37.10;;;;;;;-141.48;100.00;69781.59;5276495;28;20016;-85
2021/12/15 00:23:27;;;;;;;38.53;34.75;;;;;;;-141.48;100.00;69781.59;5258979;28;20020;-84
2021/12/15 00:25:58;;;;;;;40.95;35.08;;;;;;;-141.48;100.00;69781.59;5259801;28;20054;-85
2021/12/15 00:28:29;;;;;;;39.85;35.75;;;;;;;-141.48;100.00;69781.59;5278249;28;20032;-83
2021/12/15 00:31:00;;;;;;;42.00;34.90;;;;;;;-141.48;100.00;69781.59;5280181;28;20024;-85
2021/12/15 00:33:32;;;;;;;43.47;34.10;;;;;;;-141.48;100.00;69781.59;5279032;28;20488;-86
2021/12/15 00:36:03;;;;;;;40.63;33.72;;;;;;;-141.48;100.00;69781.59;5279789;28;20028;-83
2021/12/15 00:38:34;;;;;;;37.70;33.53;;;;;;;-141.48;100.00;69781.59;5278439;28;20042;-84
2021/12/15 00:41:06;;;;;;;39.70;34.10;;;;;;;-141.48;100.00;69781.59;5277598;28;20024;-83
2021/12/15 00:43:38;;;;;;;41.00;32.53;;;;;;;-141.48;100.00;69781.59;5278794;28;20084;-84
2021/12/15 00:46:08;;;;;;;38.85;34.33;;;;;;;-141.48;100.00;69781.59;5278908;28;20030;-85
2021/12/15 00:48:40;;;;;;;38.65;34.28;;;;;;;-141.48;100.00;69781.59;5260036;28;20489;-85
2021/12/15 00:51:10;;;;;;;42.72;33.50;;;;;;;-141.48;100.00;69781.59;5259218;28;20486;-85
2021/12/15 00:53:41;;;;;;;38.67;34.08;;;;;;;-141.48;100.00;69781.59;5277085;28;20023;-85
2021/12/15 00:56:11;;;;;;;36.65;32.97;;;;;;;-141.48;100.00;69781.59;5277742;28;20362;-84
2021/12/15 00:58:42;;;;;;;35.67;30.95;;;;;;;-141.48;100.00;69781.59;5259470;28;20081;-83
2021/12/15 01:01:13;;;;;;;46.78;32.67;;;;;;;-141.48;100.00;69781.59;5278201;28;20024;-86
2021/12/15 01:03:44;;;;;;;44.58;34.10;;;;;;;-141.48;100.00;69781.59;5277916;28;20493;-84
2021/12/15 01:06:18;;;;;;;41.60;36.65;;;;;;;-141.48;100.00;69781.59;5277455;28;20024;-86
2021/12/15 01:08:56;;;;;;;35.90;32.05;;;;;;;-141.48;100.00;69781.59;5279219;28;20020;-83
2021/12/15 01:19:59;;;;;;;40.78;32.53;;;;;;;-141.48;100.00;69781.59;5282398;28;20351;-83
2021/12/15 01:22:29;;;;;;;36.35;32.45;;;;;;;-141.48;100.00;69781.59;5281883;28;20028;-86
2021/12/15 01:25:07;;;;;;;35.20;31.65;;;;;;;-141.48;100.00;69781.59;5280775;28;20028;-85
2021/12/15 01:27:38;;;;;;;37.67;32.78;;;;;;;-141.48;100.00;69781.59;5266417;28;20023;-84
2021/12/15 01:30:12;;;;;;;35.63;31.45;;;;;;;-141.48;100.00;69781.59;5281618;28;20024;-85
2021/12/15 01:32:43;;;;;;;37.05;30.88;;;;;;;-141.48;100.00;69781.59;5262921;28;20044;-85
2021/12/15 01:35:14;;;;;;;35.15;31.45;;;;;;;-141.48;100.00;69781.59;5282148;28;20528;-86
2021/12/15 01:37:46;;;;;;;36.08;31.92;;;;;;;-141.48;100.00;69781.59;5263434;28;20469;-85
2021/12/15 01:40:28;;;;;;;36.75;32.40;;;;;;;-141.48;100.00;69781.59;5266466;28;20050;-85
2021/12/15 01:43:02;;;;;;;39.53;29.85;;;;;;;-141.48;100.00;69781.59;5269344;28;20038;-85
2021/12/15 01:48:22;;;;;;;46.67;28.98;;;;;;;-141.48;100.00;69781.59;5278645;28;20031;-85
2021/12/15 01:50:53;;;;;;;31.92;28.25;;;;;;;-141.48;100.00;69781.59;5261339;28;20023;-85
2021/12/15 01:53:24;;;;;;;32.58;29.15;;;;;;;-141.48;100.00;69781.59;5279062;28;20032;-84
2021/12/15 01:55:54;;;;;;;36.05;29.60;;;;;;;-141.48;100.00;69781.59;5280299;28;20024;-84
2021/12/15 01:58:25;;;;;;;33.22;29.83;;;;;;;-141.48;100.00;69781.59;5263317;28;20112;-83
2021/12/15 02:01:03;;;;;;;36.80;32.38;;;;;;;-141.48;100.00;69781.59;5282445;28;20498;-85
2021/12/15 02:03:34;;;;;;;37.38;32.72;;;;;;;-141.48;100.00;69781.59;5263825;28;20040;-85
2021/12/15 02:06:07;;;;;;;35.67;31.48;;;;;;;-141.48;100.00;69781.59;5280062;28;20024;-85
2021/12/15 02:08:38;;;;;;;33.22;28.27;;;;;;;-141.48;100.00;69781.59;5261042;28;20027;-85
2021/12/15 02:11:09;;;;;;;38.45;31.30;;;;;;;-141.48;100.00;69781.59;5263872;28;20028;-85
2021/12/15 02:13:40;;;;;;;32.53;28.70;;;;;;;-141.48;100.00;69781.59;5281717;28;20042;-84
2021/12/15 02:16:11;;;;;;;34.92;31.08;;;;;;;-141.48;100.00;69781.59;5261387;28;20026;-83
2021/12/15 02:18:44;;;;;;;40.40;28.42;;;;;;;-141.48;100.00;69781.59;5280146;28;20024;-85
2021/12/15 02:21:19;;;;;;;41.72;31.67;;;;;;;-141.48;100.00;69781.59;5261632;28;20024;-86
2021/12/15 02:23:54;;;;;;;33.15;28.58;;;;;;;-141.48;100.00;69781.59;5260328;28;20428;-84
2021/12/15 02:26:37;;;;;;;35.78;29.67;;;;;;;-141.48;100.00;69781.59;5263322;28;20096;-84
2021/12/15 02:29:15;;;;;;;35.60;29.75;;;;;;;-141.48;100.00;69781.59;5280199;28;20401;-84
2021/12/15 02:37:22;;;;;;;39.10;32.63;;;;;;;-141.48;100.00;69781.59;5279455;28;20032;-85
2021/12/15 02:40:00;;;;;;;37.22;30.15;;;;;;;-141.48;100.00;69781.59;5261688;28;20035;-83
2021/12/15 02:42:39;;;;;;;33.47;29.92;;;;;;;-141.48;100.00;69781.59;5279137;28;20024;-85
2021/12/15 02:45:15;;;;;;;46.63;31.95;;;;;;;-141.48;100.00;69781.59;5279212;28;20035;-84
2021/12/15 02:47:47;;;;;;;34.97;31.30;;;;;;;-141.48;100.00;69781.59;5263062;28;20031;-83
2021/12/15 02:50:25;;;;;;;38.33;31.25;;;;;;;-141.48;100.00;69781.59;5281840;28;20031;-85
2021/12/15 02:52:58;;;;;;;35.90;28.20;;;;;;;-141.48;100.00;69781.59;5263489;28;20050;-83
2021/12/15 02:55:30;;;;;;;37.22;30.00;;;;;;;-141.48;100.00;69781.59;5280867;28;20051;-86
2021/12/15 02:58:00;;;;;;;37.55;33.67;;;;;;;-141.48;100.00;69781.59;5263409;28;20024;-83
2021/12/15 03:00:46;;;;;;;38.47;31.75;;;;;;;-141.48;100.00;69781.59;5263950;28;20092;-83
2021/12/15 03:06:13;;;;;;;40.27;32.33;;;;;;;-141.48;100.00;69781.59;5280475;28;20043;-83
2021/12/15 03:16:54;;;;;;;35.83;28.92;;;;;;;-141.48;100.00;69781.59;5279356;28;20081;-88
2021/12/15 03:19:25;;;;;;;36.70;30.45;;;;;;;-141.48;100.00;69781.59;5261288;28;20020;-86
2021/12/15 03:21:56;;;;;;;33.20;25.95;;;;;;;-141.48;100.00;69781.59;5258021;28;20024;-83
2021/12/15 03:24:27;;;;;;;40.35;30.42;;;;;;;-141.48;100.00;69781.59;5274814;28;20032;-83
2021/12/15 03:27:04;;;;;;;35.35;27.17;;;;;;;-141.48;100.00;69781.59;5275427;28;20478;-83
2021/12/15 03:35:33;;;;;;;31.95;28.27;;;;;;;-141.48;100.00;69781.59;5275243;28;20036;-83
2021/12/15 03:38:04;;;;;;;38.88;30.90;;;;;;;-141.48;100.00;69781.59;5275365;28;20389;-84
2021/12/15 03:40:40;;;;;;;41.92;29.80;;;;;;;-141.48;100.00;69781.59;5275404;28;20026;-84
2021/12/15 03:43:14;;;;;;;33.83;29.38;;;;;;;-141.48;100.00;69781.59;5275696;28;20032;-84
2021/12/15 03:46:05;;;;;;;38.08;32.28;;;;;;;-141.48;100.00;69781.59;5275893;28;20099;-82
2021/12/15 03:48:40;;;;;;;42.70;31.38;;;;;;;-141.48;100.00;69781.59;5275686;28;20020;-84
2021/12/15 03:51:13;;;;;;;33.30;26.38;;;;;;;-141.48;100.00;69781.59;5276302;28;20052;-83
2021/12/15 03:53:44;;;;;;;30.27;26.30;;;;;;;-141.48;100.00;69781.59;5276838;28;20049;-83
2021/12/15 03:56:15;;;;;;;37.15;28.15;;;;;;;-141.48;100.00;69781.59;5284992;28;20075;-82
2021/12/15 03:58:47;;;;;;;32.72;29.23;;;;;;;-141.48;100.00;69781.59;5271151;28;20028;-84
2021/12/15 04:01:21;;;;;;;33.40;29.90;;;;;;;-141.48;100.00;69781.59;5287841;28;20080;-84
2021/12/15 04:03:54;;;;;;;36.72;30.30;;;;;;;-141.48;100.00;69781.59;5283583;28;20023;-85
2021/12/15 04:06:29;;;;;;;34.53;29.67;;;;;;;-141.48;100.00;69781.59;5262247;28;20035;-83
2021/12/15 04:09:00;;;;;;;31.85;28.48;;;;;;;-141.48;100.00;69781.59;5259633;28;20028;-84
2021/12/15 04:11:34;;;;;;;32.53;27.80;;;;;;;-141.48;100.00;69781.59;5264017;28;20553;-85
2021/12/15 04:14:10;;;;;;;32.15;28.63;;;;;;;-141.48;100.00;69781.59;5278439;28;20130;-84
2021/12/15 04:16:46;;;;;;;36.95;29.33;;;;;;;-141.48;100.00;69781.59;5261947;28;20024;-84
2021/12/15 04:19:23;;;;;;;34.72;29.00;;;;;;;-141.48;100.00;69781.59;5279281;28;20016;-84
2021/12/15 04:21:54;;;;;;;35.55;31.92;;;;;;;-141.48;100.00;69781.59;5276836;28;20029;-84
2021/12/15 04:24:27;;;;;;;29.25;25.20;;;;;;;-141.48;100.00;69781.59;5275844;28;20024;-84
2021/12/15 04:26:59;;;;;;;42.28;27.30;;;;;;;-141.48;100.00;69781.59;5259817;28;20024;-84
2021/12/15 04:29:30;;;;;;;33.10;28.08;;;;;;;-141.48;100.00;69781.59;5277670;28;20028;-85
2021/12/15 04:32:09;;;;;;;32.17;27.77;;;;;;;-141.48;100.00;69781.59;5261134;28;20028;-87
2021/12/15 04:34:40;;;;;;;38.05;27.77;;;;;;;-141.48;100.00;69781.59;5257675;28;20039;-84
2021/12/15 04:37:10;;;;;;;31.90;28.17;;;;;;;-141.48;100.00;69781.59;5272567;28;20028;-83
2021/12/15 04:39:40;;;;;;;43.28;29.60;;;;;;;-141.48;100.00;69781.59;5267805;28;20065;-84
2021/12/15 04:42:11;;;;;;;52.85;31.92;;;;;;;-141.48;100.00;69781.59;5268312;28;20082;-84
2021/12/15 04:44:42;;;;;;;37.42;29.92;;;;;;;-141.48;100.00;69781.59;5266894;28;20500;-82
2021/12/15 04:47:13;;;;;;;39.08;32.13;;;;;;;-141.48;100.00;69781.59;5251319;28;20122;-83
2021/12/15 04:49:49;;;;;;;36.35;31.38;;;;;;;-141.48;100.00;69781.59;5271003;28;20031;-82
2021/12/15 04:52:23;;;;;;;39.63;33.10;;;;;;;-141.48;100.00;69781.59;5252784;28;20024;-83
2021/12/15 04:54:55;;;;;;;38.28;29.00;;;;;;;-141.48;100.00;69781.59;5270236;28;20644;-83
2021/12/15 04:57:27;;;;;;;31.50;27.98;;;;;;;-141.48;100.00;69781.59;5252278;28;20112;-83
2021/12/15 04:59:58;;;;;;;37.05;31.15;;;;;;;-141.48;100.00;69781.59;5252363;28;20024;-83
2021/12/15 05:02:30;;;;;;;36.55;30.15;;;;;;;-141.48;100.00;69781.59;5252021;28;20027;-84
2021/12/15 05:05:00;;;;;;;32.97;29.27;;;;;;;-141.48;100.00;69781.59;5269805;28;20052;-84
2021/12/15 05:07:31;;;;;;;33.55;27.60;;;;;;;-141.48;100.00;69781.59;5251888;28;20478;-83
2021/12/15 05:10:03;;;;;;;40.28;30.83;;;;;;;-141.48;100.00;69781.59;5270196;28;20115;-84
2021/12/15 05:12:34;;;;;;;43.00;32.83;;;;;;;-141.48;100.00;69781.59;5251999;28;20085;-84
2021/12/15 05:15:06;;;;;;;37.47;33.50;;;;;;;-141.48;100.00;69781.59;5269737;28;20028;-84
2021/12/15 05:17:37;;;;;;;33.53;29.33;;;;;;;-141.48;100.00;69781.59;5270745;28;20413;-84
2021/12/15 05:20:09;;;;;;;33.20;29.02;;;;;;;-141.48;100.00;69781.59;5270859;28;20107;-83
2021/12/15 05:22:41;;;;;;;32.75;27.98;;;;;;;-141.48;100.00;69781.59;5269912;28;20042;-83
2021/12/15 05:25:11;;;;;;;34.58;29.52;;;;;;;-141.48;100.00;69781.59;5269765;28;20056;-84
2021/12/15 05:27:42;;;;;;;38.33;28.88;;;;;;;-141.48;100.00;69781.59;5251594;28;20518;-83
2021/12/15 05:30:15;;;;;;;37.58;27.10;;;;;;;-141.48;100.00;69781.59;5269741;28;20114;-83
2021/12/15 05:32:47;;;;;;;34.67;30.98;;;;;;;-141.48;100.00;69781.59;5269851;28;20023;-84
2021/12/15 05:35:23;;;;;;;35.20;31.52;;;;;;;-141.48;100.00;69781.59;5251713;28;20114;-86
2021/12/15 05:37:57;;;;;;;37.67;31.63;;;;;;;-141.48;100.00;69781.59;5251744;28;20031;-86
2021/12/15 05:40:28;;;;;;;38.42;31.45;;;;;;;-141.48;100.00;69781.59;5269466;28;20391;-88
2021/12/15 05:43:00;;;;;;;39.10;29.15;;;;;;;-141.48;100.00;69781.59;5251530;28;20085;-85
2021/12/15 05:45:33;;;;;;;31.25;27.45;;;;;;;-141.48;100.00;69781.59;5268642;28;20393;-84
2021/12/15 05:48:05;;;;;;;32.67;29.23;;;;;;;-141.48;100.00;69781.59;5269186;28;20035;-83
2021/12/15 05:50:36;;;;;;;35.35;31.48;;;;;;;-141.48;100.00;69781.59;5251953;28;20073;-86
2021/12/15 05:53:07;;;;;;;44.17;31.13;;;;;;;-141.48;100.00;69781.59;5269307;28;20095;-86
2021/12/15 05:55:39;;;;;;;41.08;33.08;;;;;;;-141.48;100.00;69781.59;5268635;28;20385;-86
2021/12/15 05:58:10;;;;;;;32.33;28.27;;;;;;;-141.48;100.00;69781.59;5269314;28;20474;-86
2021/12/15 06:00:42;;;;;;;32.83;29.30;;;;;;;-141.48;100.00;69781.59;5251228;28;20070;-86
2021/12/15 06:03:14;;;;;;;35.17;29.50;;;;;;;-141.48;100.00;69781.59;5268914;28;20063;-86
2021/12/15 06:05:44;;;;;;;38.13;32.95;;;;;;;-141.48;100.00;69781.59;5250657;28;20020;-86
2021/12/15 06:08:15;;;;;;;40.97;28.35;;;;;;;-141.48;100.00;69781.59;5251127;28;20020;-86
2021/12/15 06:10:45;;;;;;;41.20;34.67;;;;;;;-141.48;100.00;69781.59;5269083;28;20051;-86
2021/12/15 06:13:16;;;;;;;34.58;30.90;;;;;;;-141.48;100.00;69781.59;5250952;28;20032;-86
2021/12/15 06:15:47;;;;;;;36.15;29.23;;;;;;;-141.48;100.00;69781.59;5268561;28;20024;-86
2021/12/15 06:18:19;;;;;;;41.65;32.80;;;;;;;-141.48;100.00;69781.59;5250950;28;20230;-86
2021/12/15 06:20:52;;;;;;;36.95;31.15;;;;;;;-141.48;100.00;69781.59;5269277;28;20024;-87
2021/12/15 06:23:23;;;;;;;40.05;29.63;;;;;;;-141.48;100.00;69781.59;5268534;28;20034;-86
2021/12/15 06:25:57;;;;;;;37.72;32.88;;;;;;;-141.48;100.00;69781.59;5268914;28;20024;-86
2021/12/15 06:28:30;;;;;;;38.63;29.63;;;;;;;-141.48;100.00;69781.59;5250662;28;20047;-85
2021/12/15 06:31:02;;;;;;;35.10;31.40;;;;;;;-141.48;100.00;69781.59;5250379;28;20398;-85
2021/12/15 06:33:34;;;;;;;43.53;35.00;;;;;;;-141.48;100.00;69781.59;5267954;28;20020;-85
2021/12/15 06:36:07;;;;;;;43.15;35.28;;;;;;;-141.48;100.00;69781.59;5268389;28;20473;-84
2021/12/15 06:38:41;;;;;;;44.42;33.55;;;;;;;-141.48;100.00;69781.59;5250310;28;20397;-85
2021/12/15 06:41:13;;;;;;;46.90;41.90;;;;;;;-141.48;100.00;69781.59;5268266;28;20038;-83
2021/12/15 06:43:48;;;;;;;40.38;32.03;;;;;;;-141.48;100.00;69781.59;5266250;28;20031;-80
2021/12/15 07:00:13;;;;;;;41.85;33.13;;;;;;;-141.48;100.00;69781.59;5268239;28;20522;-82
2021/12/15 07:02:44;;;;;;;39.70;31.85;;;;;;;-141.48;100.00;69781.59;5249759;28;20023;-83
2021/12/15 07:05:17;;;;;;;42.03;30.38;;;;;;;-141.48;100.00;69781.59;5270854;28;20024;-81
2021/12/15 07:07:52;;;;;;;35.60;31.80;;;;;;;-141.48;100.00;69781.59;5249812;28;20034;-83
2021/12/15 07:10:30;;;;;;;42.20;33.20;;;;;;;-141.48;100.00;69781.59;5248983;28;20126;-83
2021/12/15 07:13:02;;;;;;;35.10;31.05;;;;;;;-141.48;100.00;69781.59;5267998;28;20042;-84
2021/12/15 07:15:34;;;;;;;38.88;34.33;;;;;;;-141.48;100.00;69781.59;5267308;28;20058;-83
2021/12/15 07:18:09;;;;;;;36.95;28.85;;;;;;;-141.48;100.00;69781.59;5250290;28;20028;-83
2021/12/15 07:23:16;;;;;;;34.10;30.15;;;;;;;-141.48;100.00;69781.59;5267896;28;20092;-81
2021/12/15 07:25:49;;;;;;;42.35;31.95;;;;;;;-141.48;100.00;69781.59;5267529;28;20038;-81
2021/12/15 07:28:23;;;;;;;34.60;28.08;;;;;;;-141.48;100.00;69781.59;5267832;28;20024;-82
2021/12/15 07:30:54;;;;;;;35.35;31.88;;;;;;;-141.48;100.00;69781.59;5269247;28;20386;-82
2021/12/15 07:33:25;;;;;;;36.80;32.72;;;;;;;-141.48;100.00;69781.59;5271429;28;20027;-83
2021/12/15 07:35:56;;;;;;;37.45;33.50;;;;;;;-141.48;100.00;69781.59;5269608;28;20031;-83
2021/12/15 07:38:27;;;;;;;40.88;36.15;;;;;;;-141.48;100.00;69781.59;5250312;28;20066;-81
2021/12/15 07:40:58;;;;;;;37.33;32.67;;;;;;;-141.48;100.00;69781.59;5268691;28;20451;-82
2021/12/15 07:43:31;;;;;;;37.13;29.67;;;;;;;-141.48;100.00;69781.59;5270324;28;20075;-83
2021/12/15 07:46:05;;;;;;;44.97;33.85;;;;;;;-141.48;100.00;69781.59;5275463;28;20513;-83
2021/12/15 07:48:36;;;;;;;40.65;32.90;;;;;;;-141.48;100.00;69781.59;5254533;28;20020;-81
2021/12/15 07:51:09;;;;;;;41.95;33.08;;;;;;;-141.48;100.00;69781.59;5285464;28;20091;-83
2021/12/15 07:53:45;;;;;;;36.50;32.13;;;;;;;-141.48;100.00;69781.59;5267069;28;20641;-85
2021/12/15 07:56:18;;;;;;;34.75;29.77;;;;;;;-141.48;100.00;69781.59;5263675;28;20054;-82
2021/12/15 07:58:49;;;;;;;45.92;33.85;;;;;;;-141.48;100.00;69781.59;5263489;28;20047;-84
2021/12/15 08:01:22;;;;;;;36.53;31.92;;;;;;;-141.48;100.00;69781.59;5259442;28;20035;-85
2021/12/15 08:03:54;;;;;;;35.50;30.67;;;;;;;-141.48;100.00;69781.59;5256053;28;20031;-85
2021/12/15 08:06:27;;;;;;;36.83;31.35;;;;;;;-141.48;100.00;69781.59;5276590;28;20031;-85
2021/12/15 08:08:58;;;;;;;37.17;33.35;;;;;;;-141.48;100.00;69781.59;5275582;28;20031;-85
2021/12/15 08:11:28;;;;;;;37.15;28.35;;;;;;;-141.48;100.00;69781.59;5278773;28;20024;-84
2021/12/15 08:13:58;;;;;;;33.65;29.75;;;;;;;-141.48;100.00;69781.59;5284785;28;20024;-83
2021/12/15 08:16:29;;;;;;;31.77;28.35;;;;;;;-141.48;100.00;69781.59;5266182;28;20046;-82
2021/12/15 08:19:00;;;;;;;34.92;31.13;;;;;;;-141.48;100.00;69781.59;5275688;28;20067;-84
2021/12/15 08:21:31;;;;;;;35.42;29.85;;;;;;;-141.48;100.00;69781.59;5258765;28;20127;-81
2021/12/15 08:24:04;;;;;;;32.70;28.75;;;;;;;-141.48;100.00;69781.59;5276030;28;20121;-84
2021/12/15 08:26:38;;;;;;;31.75;27.70;;;;;;;-141.48;100.00;69781.59;5279689;28;20156;-85
2021/12/15 08:29:09;;;;;;;35.80;32.03;;;;;;;-141.48;100.00;69781.59;5259180;28;20020;-84
2021/12/15 08:31:39;;;;;;;31.50;28.52;;;;;;;-141.48;100.00;69781.59;5259822;28;20017;-82
2021/12/15 08:34:10;;;;;;;34.08;28.05;;;;;;;-141.48;100.00;69781.59;5276312;28;20110;-81
2021/12/15 08:36:41;;;;;;;34.72;30.98;;;;;;;-141.48;100.00;69781.59;5259139;28;20024;-83
2021/12/15 08:39:11;;;;;;;32.65;29.45;;;;;;;-141.48;100.00;69781.59;5277970;28;20028;-84
2021/12/15 08:41:42;;;;;;;34.33;28.85;;;;;;;-141.48;100.00;69781.59;5260259;28;20024;-81
2021/12/15 08:44:14;;;;;;;37.63;30.83;;;;;;;-141.48;100.00;69781.59;5258499;28;20039;-83
2021/12/15 08:46:48;;;;;;;30.80;27.70;;;;;;;-141.48;100.00;69781.59;5279250;28;20024;-82
2021/12/15 08:49:33;;;;;;;;;;;;;;;;;;;;;
2021/12/15 08:52:11;;;;;;;33.47;29.88;;;;;;;-141.48;100.00;69781.59;5285150;28;20043;-83
2021/12/15 08:55:21;;;;;;;33.55;29.50;;;;;;;-141.48;100.00;69781.59;5266596;28;20067;-85
2021/12/15 08:58:05;;;;;;;35.90;29.92;;;;;;;-141.48;100.00;69781.59;5286993;28;20027;-84
2021/12/15 09:00:37;;;;;;;32.95;28.17;;;;;;;-141.48;100.00;69781.59;5269617;28;20133;-84
2021/12/15 09:03:07;;;;;;;37.17;30.55;;;;;;;-141.48;100.00;69781.59;5280927;28;20031;-84
2021/12/15 09:05:39;;;;;;;31.80;28.48;;;;;;;-141.48;100.00;69781.59;5257851;28;20020;-84
2021/12/15 09:08:12;;;;;;;31.40;28.40;;;;;;;-141.48;100.00;69781.59;5286289;28;20054;-83
2021/12/15 09:10:45;;;;;;;31.50;28.30;;;;;;;-141.48;100.00;69781.59;5268233;28;20054;-85
2021/12/15 09:13:43;;;;;;;34.88;30.35;;;;;;;-141.48;100.00;69781.59;5288763;28;20059;-84
2021/12/15 09:16:19;;;;;;;32.47;28.80;;;;;;;-141.48;100.00;69781.59;5288372;28;20042;-83
2021/12/15 09:25:57;;;;;;;36.17;27.83;;;;;;;-141.48;100.00;69781.59;5203929;28;20032;-80
2021/12/15 09:28:30;;;;;;;32.10;28.40;;;;;;;-141.48;100.00;69781.59;5270201;28;20055;-81
2021/12/15 09:31:03;;;;;;;31.77;28.40;;;;;;;-141.48;100.00;69781.59;5270404;28;20103;-82
2021/12/15 09:33:48;;;;;;;30.50;26.65;;;;;;;-141.48;100.00;69781.59;5252123;28;20028;-83
2021/12/15 09:36:21;;;;;;;32.95;30.05;;;;;;;-141.48;100.00;69781.59;5291107;28;20028;-87
2021/12/15 09:38:55;;;;;;;31.05;27.73;;;;;;;-141.48;100.00;69781.59;5276034;28;20020;-84
2021/12/15 09:41:27;;;;;;;31.70;28.48;;;;;;;-141.48;100.00;69781.59;5279000;28;20029;-85
2021/12/15 09:44:03;;;;;;;30.50;27.60;;;;;;;-141.48;100.00;69781.59;5258876;28;20051;-82
2021/12/15 10:03:00;;;;;;;31.83;28.35;;;;;;;-141.48;100.00;69781.59;5276369;28;20093;-82
2021/12/15 10:06:06;;;;;;;32.80;29.55;;;;;;;-141.48;100.00;69781.59;5274710;28;20358;-84
2021/12/15 10:11:31;;;;;;;31.55;27.95;;;;;;;-141.48;100.00;69781.59;5276602;28;20068;-85
2021/12/15 10:19:53;;;;;;;31.08;27.08;;;;;;;-141.48;100.00;69781.59;5275226;28;20111;-83
2021/12/15 10:22:40;;;;;;;31.42;26.55;;;;;;;-141.48;100.00;69781.59;5275513;28;20031;-83
2021/12/15 10:25:24;;;;;;;29.10;26.15;;;;;;;-141.48;100.00;69781.59;5276545;28;20016;-83
2021/12/15 10:28:03;;;;;;;29.27;26.60;;;;;;;-141.48;100.00;69781.59;5258718;28;20024;-84
2021/12/15 10:30:41;;;;;;;30.05;26.95;;;;;;;-141.48;100.00;69781.59;5260116;28;20020;-83
2021/12/15 10:33:21;;;;;;;26.17;23.98;;;;;;;-141.48;100.00;69781.59;5260711;28;20555;-83
2021/12/15 10:35:57;;;;;;;;;;;;;;;-141.48;100.00;69781.59;5261488;28;20081;-83
2021/12/15 10:38:31;;;;;;;29.58;26.65;;;;;;;-141.48;100.00;69781.59;5279752;28;20374;-83
2021/12/15 10:41:13;;;;;;;29.55;25.88;;;;;;;-141.48;100.00;69781.59;5260574;28;20020;-82
2021/12/15 10:43:57;;;;;;;35.13;31.90;;;;;;;-141.48;100.00;69781.59;5258689;28;20074;-83
2021/12/15 10:46:33;;;;;;;31.70;28.63;;;;;;;-141.48;100.00;69781.59;5278531;28;20024;-84
2021/12/15 10:49:18;;;;;;;28.27;25.25;;;;;;;-141.48;100.00;69781.59;5259448;28;20034;-84
2021/12/15 10:52:21;;;;;;;28.00;25.20;;;;;;;-141.48;100.00;69781.59;5276240;28;20012;-83
2021/12/15 10:54:56;;;;;;;28.58;25.95;;;;;;;-141.48;100.00;69781.59;5273540;28;20336;-86
2021/12/15 10:57:38;;;;;;;29.92;26.38;;;;;;;-141.48;100.00;69781.59;5264745;28;20035;-84
2021/12/15 11:00:12;;;;;;;30.20;27.05;;;;;;;-141.48;100.00;69781.59;5266219;28;20024;-85
2021/12/15 11:02:42;;;;;;;27.42;24.70;;;;;;;-141.48;100.00;69781.59;5272724;28;20164;-85
2021/12/15 11:05:20;;;;;;;27.45;24.60;;;;;;;-141.48;100.00;69781.59;5268375;28;20028;-85
2021/12/15 11:07:58;;;;;;;28.48;25.52;;;;;;;-141.48;100.00;69781.59;5284035;28;20037;-90
2021/12/15 11:10:37;;;;;;;28.10;25.33;;;;;;;-141.48;100.00;69781.59;5291304;28;20031;-86
2021/12/15 11:13:14;;;;;;;28.13;25.23;;;;;;;-141.48;100.00;69781.59;5279648;28;20024;-86
2021/12/15 11:15:48;;;;;;;30.13;26.58;;;;;;;-141.48;100.00;69781.59;5259797;28;20054;-87
2021/12/15 11:18:22;;;;;;;29.50;26.90;;;;;;;-141.48;100.00;69781.59;5262398;28;20050;-84
2021/12/15 11:21:03;;;;;;;26.55;24.10;;;;;;;-141.48;100.00;69781.59;5277030;28;20020;-85
2021/12/15 11:23:35;;;;;;;30.08;27.10;;;;;;;-141.48;100.00;69781.59;5277041;28;20040;-87
2021/12/15 11:26:11;;;;;;;27.45;24.77;;;;;;;-141.48;100.00;69781.59;5275921;28;20493;-86
2021/12/15 11:28:46;;;;;;;29.27;26.35;;;;;;;-141.48;100.00;69781.59;5257046;28;20420;-86
2021/12/15 11:31:27;;;;;;;29.08;26.15;;;;;;;-141.48;100.00;69781.59;5274653;28;20012;-86
2021/12/15 11:34:05;;;;;;;28.70;25.90;;;;;;;-141.48;100.00;69781.59;5257757;28;20039;-86
2021/12/15 11:36:44;;;;;;;26.90;24.13;;;;;;;-141.48;100.00;69781.59;5281632;28;20020;-86
2021/12/15 11:39:21;;;;;;;27.50;24.92;;;;;;;-141.48;100.00;69781.59;5271213;28;20031;-87
2021/12/15 11:41:54;;;;;;;26.33;23.70;;;;;;;-141.48;100.00;69781.59;5252456;28;20024;-87
2021/12/15 11:44:27;;;;;;;27.80;24.98;;;;;;;-141.48;100.00;69781.59;5277508;28;20028;-86
2021/12/15 11:47:01;;;;;;;29.90;25.05;;;;;;;-141.48;100.00;69781.59;5280917;28;20116;-86
2021/12/15 11:49:39;;;;;;;26.98;24.25;;;;;;;-141.48;100.00;69781.59;5280987;28;20024;-86
2021/12/15 11:52:14;;;;;;;25.15;22.60;;;;;;;-141.48;100.00;69781.59;5262089;28;20027;-86
2021/12/15 11:54:49;;;;;;;26.70;23.95;;;;;;;-141.48;100.00;69781.59;5279368;28;20451;-85
2021/12/15 11:57:28;;;;;;;27.48;24.67;;;;;;;-141.48;100.00;69781.59;5280290;28;20371;-86
2021/12/15 12:00:09;;;;;;;25.98;23.52;;;;;;;-141.48;100.00;69781.59;5279499;28;20035;-86
2021/12/15 12:02:47;;;;;;;27.05;23.50;;;;;;;-141.48;100.00;69781.59;5278650;28;20087;-85
2021/12/15 12:05:19;;;;;;;22.80;20.67;;;;;;;-141.48;100.00;69781.59;5279081;28;20024;-84
2021/12/15 12:07:59;;;;;;;26.38;23.23;;;;;;;-141.48;100.00;69781.59;5261695;28;20031;-85
2021/12/15 12:10:46;;;;;;;26.90;24.17;;;;;;;-141.48;100.00;69781.59;5282075;28;20031;-86
2021/12/15 12:13:27;;;;;;;26.98;24.67;;;;;;;-141.48;100.00;69781.59;5267499;28;20035;-84
2021/12/15 12:16:04;;;;;;;26.50;23.65;;;;;;;-141.48;100.00;69781.59;5282704;28;20024;-84
2021/12/15 12:18:36;;;;;;;25.67;23.52;;;;;;;-141.48;100.00;69781.59;5281730;28;20024;-84
2021/12/15 12:21:09;;;;;;;24.77;22.33;;;;;;;-141.48;100.00;69781.59;5278086;28;20028;-87
2021/12/15 12:23:44;;;;;;;25.65;23.23;;;;;;;-141.48;100.00;69781.59;5254796;28;20027;-84
2021/12/15 12:26:17;;;;;;;24.70;22.45;;;;;;;-141.48;100.00;69781.59;5255101;28;20081;-85
2021/12/15 12:28:47;;;;;;;23.92;21.33;;;;;;;-141.48;100.00;69781.59;5255346;28;20034;-86
2021/12/15 12:31:21;;;;;;;24.15;22.00;;;;;;;-141.48;100.00;69781.59;5254429;28;20478;-86
2021/12/15 12:33:52;;;;;;;25.55;22.95;;;;;;;-141.48;100.00;69781.59;5253852;28;20032;-86
2021/12/15 12:36:29;;;;;;;25.33;22.92;;;;;;;-141.48;100.00;69781.59;5253812;28;20027;-85
2021/12/15 12:39:08;;;;;;;22.13;20.30;;;;;;;-141.48;100.00;69781.59;5249184;28;20081;-87
2021/12/15 12:41:45;;;;;;;25.70;23.60;;;;;;;-141.48;100.00;69781.59;5252559;28;20048;-85
2021/12/15 12:44:22;;;;;;;25.58;22.13;;;;;;;-141.48;100.00;69781.59;5275789;28;20107;-86
2021/12/15 12:47:01;;;;;;;28.33;24.45;;;;;;;-141.48;100.00;69781.59;5274745;28;20020;-86